createdAt,value
2018-07-15T00:01:15.545Z,4.90
2018-07-15T00:03:44.097Z,4.80
2018-07-15T00:06:13.249Z,4.80
2018-07-15T00:08:41.809Z,4.30
2018-07-15T00:11:10.390Z,4.73
2018-07-15T00:13:39.562Z,4.70
2018-07-15T00:16:08.134Z,4.93
2018-07-15T00:18:36.687Z,4.60
2018-07-15T00:21:05.250Z,4.90
2018-07-15T00:23:33.823Z,5.10
2018-07-15T00:26:02.329Z,5.23
2018-07-15T00:28:30.851Z,5.30
2018-07-15T00:30:59.075Z,5.73
2018-07-15T00:33:27.643Z,4.77
2018-07-15T00:35:56.153Z,4.80
2018-07-15T00:38:24.712Z,5.23
2018-07-15T00:40:53.957Z,4.50
2018-07-15T00:43:22.541Z,4.93
2018-07-15T00:45:51.056Z,4.90
2018-07-15T00:48:19.590Z,5.13
2018-07-15T00:50:48.110Z,6.30
2018-07-15T00:53:16.945Z,5.70
2018-07-15T00:55:45.635Z,5.37
2018-07-15T00:58:14.778Z,4.83
2018-07-15T01:00:49.049Z,6.37
2018-07-15T01:03:18.424Z,5.40
2018-07-15T01:05:46.979Z,5.23
2018-07-15T01:08:15.200Z,5.70
2018-07-15T01:10:43.738Z,6.83
2018-07-15T01:13:11.999Z,6.20
2018-07-15T01:15:40.533Z,6.20
2018-07-15T01:18:09.159Z,5.13
2018-07-15T01:20:37.677Z,5.53
2018-07-15T01:23:05.922Z,6.23
2018-07-15T01:25:34.426Z,5.93
2018-07-15T01:28:02.645Z,5.57
2018-07-15T01:30:31.162Z,5.23
2018-07-15T01:32:59.744Z,5.50
2018-07-15T01:35:28.306Z,5.60
2018-07-15T01:37:56.912Z,5.60
2018-07-15T01:40:25.493Z,5.37
2018-07-15T01:42:54.076Z,5.10
2018-07-15T01:45:22.637Z,5.10
2018-07-15T01:47:51.196Z,5.73
2018-07-15T01:50:20.106Z,5.47
2018-07-15T01:52:48.692Z,5.73
2018-07-15T01:55:17.264Z,6.10
2018-07-15T01:57:45.841Z,5.40
2018-07-15T02:00:14.398Z,5.63
2018-07-15T02:02:42.973Z,6.00
2018-07-15T02:05:12.682Z,5.80
2018-07-15T02:07:41.844Z,5.87
2018-07-15T02:10:11.065Z,6.30
2018-07-15T02:12:39.668Z,5.43
2018-07-15T02:15:08.257Z,6.10
2018-07-15T02:17:36.794Z,6.77
2018-07-15T02:20:05.445Z,6.20
2018-07-15T02:22:34.050Z,6.40
2018-07-15T02:25:03.276Z,6.17
2018-07-15T02:27:32.320Z,6.77
2018-07-15T02:30:00.957Z,6.57
2018-07-15T02:32:30.055Z,6.53
2018-07-15T02:34:59.235Z,6.50
2018-07-15T02:37:27.786Z,6.83
2018-07-15T02:39:56.013Z,7.10
2018-07-15T02:42:25.133Z,6.37
2018-07-15T02:44:55.021Z,6.37
2018-07-15T02:47:24.129Z,6.63
2018-07-15T02:49:53.213Z,6.73
2018-07-15T02:52:22.325Z,6.93
2018-07-15T02:54:50.957Z,6.73
2018-07-15T02:57:19.499Z,7.00
2018-07-15T02:59:48.121Z,6.90
2018-07-15T03:02:16.301Z,7.23
2018-07-15T03:04:44.512Z,6.80
2018-07-15T03:07:13.093Z,7.13
2018-07-15T03:09:41.673Z,6.97
2018-07-15T03:12:10.185Z,6.70
2018-07-15T03:14:39.233Z,7.20
2018-07-15T03:17:07.773Z,7.63
2018-07-15T03:19:36.334Z,6.93
2018-07-15T03:22:04.931Z,7.80
2018-07-15T03:24:33.498Z,7.50
2018-07-15T03:27:02.043Z,7.50
2018-07-15T03:29:30.633Z,6.90
2018-07-15T03:31:59.184Z,7.30
2018-07-15T03:34:27.741Z,7.70
2018-07-15T03:36:56.329Z,7.33
2018-07-15T03:39:25.425Z,7.17
2018-07-15T03:41:55.325Z,7.73
2018-07-15T03:44:24.842Z,8.00
2018-07-15T03:46:53.737Z,6.83
2018-07-15T03:49:23.429Z,6.63
2018-07-15T03:51:52.029Z,7.03
2018-07-15T03:54:20.664Z,7.40
2018-07-15T03:56:48.900Z,8.23
2018-07-15T03:59:17.477Z,8.23
2018-07-15T04:01:46.054Z,8.33
2018-07-15T04:04:14.604Z,8.23
2018-07-15T04:06:43.184Z,7.70
2018-07-15T04:09:11.817Z,7.30
2018-07-15T04:11:40.385Z,8.03
2018-07-15T04:14:08.937Z,7.20
2018-07-15T04:16:37.553Z,7.30
2018-07-15T04:19:06.173Z,6.63
2018-07-15T04:21:34.774Z,6.67
2018-07-15T04:24:03.373Z,7.57
2018-07-15T04:26:31.925Z,6.73
2018-07-15T04:29:01.021Z,6.60
2018-07-15T04:31:29.585Z,7.00
2018-07-15T04:33:58.200Z,6.90
2018-07-15T04:36:26.773Z,7.23
2018-07-15T04:38:55.321Z,8.03
2018-07-15T04:41:23.941Z,7.97
2018-07-15T04:43:52.515Z,7.20
2018-07-15T04:46:21.208Z,7.57
2018-07-15T04:48:49.775Z,7.40
2018-07-15T04:51:18.377Z,7.10
2018-07-15T04:53:47.013Z,7.77
2018-07-15T04:56:15.650Z,7.80
2018-07-15T04:58:44.195Z,7.47
2018-07-15T05:01:13.354Z,7.10
2018-07-15T05:03:41.921Z,7.33
2018-07-15T05:06:11.389Z,7.53
2018-07-15T05:08:39.944Z,7.27
2018-07-15T05:11:08.513Z,7.70
2018-07-15T05:13:37.504Z,7.07
2018-07-15T05:16:05.726Z,8.30
2018-07-15T05:18:34.895Z,7.90
2018-07-15T05:21:03.144Z,8.53
2018-07-15T05:23:32.301Z,8.00
2018-07-15T05:26:00.863Z,7.70
2018-07-15T05:28:29.453Z,7.27
2018-07-15T05:30:58.034Z,7.47
2018-07-15T05:33:26.672Z,7.00
2018-07-15T05:35:55.237Z,6.97
2018-07-15T05:38:23.848Z,6.53
2018-07-15T05:40:52.473Z,6.83
2018-07-15T05:43:22.697Z,6.37
2018-07-15T05:45:52.404Z,7.03
2018-07-15T05:48:21.338Z,6.90
2018-07-15T05:50:51.249Z,5.93
2018-07-15T05:53:20.900Z,5.90
2018-07-15T05:55:49.112Z,5.60
2018-07-15T05:58:17.680Z,6.87
2018-07-15T06:00:47.212Z,6.70
2018-07-15T06:03:17.182Z,6.57
2018-07-15T06:05:45.426Z,5.90
2018-07-15T06:08:13.960Z,6.47
2018-07-15T06:10:43.153Z,6.43
2018-07-15T06:13:11.742Z,6.83
2018-07-15T06:15:40.335Z,7.43
2018-07-15T06:18:08.914Z,8.03
2018-07-15T06:20:38.296Z,7.67
2018-07-15T06:23:06.741Z,7.33
2018-07-15T06:25:35.341Z,7.23
2018-07-15T06:28:03.906Z,7.50
2018-07-15T06:30:33.002Z,7.23
2018-07-15T06:33:02.203Z,6.37
2018-07-15T06:35:30.748Z,6.73
2018-07-15T06:37:59.317Z,6.57
2018-07-15T06:40:27.507Z,5.80
2018-07-15T06:42:56.394Z,5.47
2018-07-15T06:45:25.129Z,5.87
2018-07-15T06:47:53.741Z,5.83
2018-07-15T06:50:22.286Z,5.57
2018-07-15T06:52:51.498Z,6.10
2018-07-15T06:55:20.090Z,5.90
2018-07-15T06:57:48.665Z,5.10
2018-07-15T07:00:17.237Z,5.60
2018-07-15T07:02:46.590Z,6.60
2018-07-15T07:05:14.920Z,5.93
2018-07-15T07:07:43.564Z,5.80
2018-07-15T07:10:12.803Z,5.63
2018-07-15T07:12:41.704Z,5.00
2018-07-15T07:15:10.238Z,5.37
2018-07-15T07:17:38.449Z,5.40
2018-07-15T07:20:07.017Z,5.00
2018-07-15T07:22:36.335Z,5.60
2018-07-15T07:25:05.125Z,6.47
2018-07-15T07:27:33.706Z,6.10
2018-07-15T07:30:02.241Z,5.77
2018-07-15T07:32:31.522Z,6.23
2018-07-15T07:35:00.670Z,5.30
2018-07-15T07:37:29.261Z,5.70
2018-07-15T07:39:57.872Z,5.97
2018-07-15T07:42:26.525Z,6.20
2018-07-15T07:44:55.671Z,5.40
2018-07-15T07:47:24.267Z,5.13
2018-07-15T07:49:53.596Z,5.73
2018-07-15T07:52:23.008Z,5.40
2018-07-15T07:54:51.588Z,5.60
2018-07-15T07:57:20.194Z,5.40
2018-07-15T07:59:48.725Z,5.37
2018-07-15T08:02:17.917Z,5.57
2018-07-15T08:04:46.812Z,5.23
2018-07-15T08:07:16.010Z,5.30
2018-07-15T08:09:44.602Z,6.17
2018-07-15T08:12:13.742Z,5.40
2018-07-15T08:14:42.334Z,5.33
2018-07-15T08:17:10.944Z,5.30
2018-07-15T08:19:39.941Z,5.47
2018-07-15T08:22:08.829Z,4.70
2018-07-15T08:24:37.528Z,5.20
2018-07-15T08:27:06.461Z,5.47
2018-07-15T08:29:35.087Z,4.90
2018-07-15T08:32:03.690Z,5.60
2018-07-15T08:34:32.710Z,5.30
2018-07-15T08:37:01.311Z,5.40
2018-07-15T08:39:29.901Z,5.10
2018-07-15T08:41:58.580Z,4.97
2018-07-15T08:44:26.773Z,5.40
2018-07-15T08:46:55.383Z,5.30
2018-07-15T08:49:25.517Z,5.00
2018-07-15T08:51:54.088Z,5.70
2018-07-15T08:54:23.589Z,5.20
2018-07-15T08:56:52.157Z,5.30
2018-07-15T08:59:20.713Z,5.33
2018-07-15T09:01:48.977Z,5.10
2018-07-15T09:04:17.537Z,5.20
2018-07-15T09:06:46.128Z,5.03
2018-07-15T09:09:14.713Z,5.10
2018-07-15T09:11:43.316Z,5.20
2018-07-15T09:14:12.466Z,5.50
2018-07-15T09:16:41.015Z,4.70
2018-07-15T09:19:09.852Z,4.90
2018-07-15T09:21:38.415Z,4.80
2018-07-15T09:24:07.293Z,5.37
2018-07-15T09:26:35.694Z,4.87
2018-07-15T09:29:04.823Z,4.73
2018-07-15T09:31:33.574Z,5.50
2018-07-15T09:34:02.209Z,4.80
2018-07-15T09:36:30.749Z,4.60
2018-07-15T09:38:59.333Z,5.30
2018-07-15T09:41:27.948Z,5.43
2018-07-15T09:43:56.537Z,5.20
2018-07-15T09:46:25.080Z,4.47
2018-07-15T09:48:53.663Z,4.77
2018-07-15T09:51:22.246Z,4.90
2018-07-15T09:53:50.844Z,5.10
2018-07-15T09:56:19.411Z,4.97
2018-07-15T09:58:47.995Z,4.93
2018-07-15T10:01:16.577Z,6.17
2018-07-15T10:03:45.183Z,5.10
2018-07-15T10:06:13.748Z,5.27
2018-07-15T10:08:42.349Z,4.30
2018-07-15T10:11:10.981Z,4.30
2018-07-15T10:13:39.564Z,4.37
2018-07-15T10:16:08.109Z,4.40
2018-07-15T10:18:36.688Z,3.90
2018-07-15T10:21:05.248Z,4.40
2018-07-15T10:23:33.886Z,4.63
2018-07-15T10:26:02.505Z,4.50
2018-07-15T10:28:31.117Z,4.37
2018-07-15T10:30:59.746Z,4.40
2018-07-15T10:33:28.352Z,4.23
2018-07-15T10:35:56.551Z,4.17
2018-07-15T10:38:25.181Z,4.03
2018-07-15T10:40:53.836Z,4.07
2018-07-15T10:43:22.453Z,4.23
2018-07-15T10:45:51.004Z,4.13
2018-07-15T10:48:20.315Z,4.00
2018-07-15T10:50:48.873Z,4.03
2018-07-15T10:53:17.474Z,3.93
2018-07-15T10:55:46.054Z,4.07
2018-07-15T10:58:14.735Z,4.00
2018-07-15T11:00:43.325Z,3.80
2018-07-15T11:03:11.959Z,3.80
2018-07-15T11:05:40.521Z,4.07
2018-07-15T11:08:09.684Z,6.20
2018-07-15T11:10:38.299Z,4.07
2018-07-15T11:13:06.921Z,14.47
2018-07-15T11:15:35.509Z,6.73
2018-07-15T11:18:04.089Z,4.40
2018-07-15T11:20:32.710Z,4.20
2018-07-15T11:23:01.322Z,3.30
2018-07-15T11:25:29.873Z,3.57
2018-07-15T11:27:58.498Z,3.73
2018-07-15T11:30:27.045Z,3.60
2018-07-15T11:32:55.657Z,9.03
2018-07-15T11:35:24.222Z,4.80
2018-07-15T11:37:52.964Z,4.20
2018-07-15T11:40:22.157Z,3.40
2018-07-15T11:42:50.729Z,4.10
2018-07-15T11:45:19.777Z,3.70
2018-07-15T11:47:48.956Z,4.10
2018-07-15T11:50:17.592Z,3.77
2018-07-15T11:52:46.153Z,4.20
2018-07-15T11:55:15.340Z,3.70
2018-07-15T11:57:44.185Z,3.60
2018-07-15T12:00:12.850Z,3.77
2018-07-15T12:02:41.392Z,4.07
2018-07-15T12:05:09.655Z,4.13
2018-07-15T12:07:38.189Z,4.50
2018-07-15T12:10:07.386Z,4.07
2018-07-15T12:12:36.381Z,4.27
2018-07-15T12:15:05.812Z,3.70
2018-07-15T12:17:34.895Z,3.93
2018-07-15T12:20:03.620Z,3.70
2018-07-15T12:22:32.810Z,3.63
2018-07-15T12:25:01.603Z,4.10
2018-07-15T12:27:31.109Z,3.93
2018-07-15T12:30:00.322Z,4.00
2018-07-15T12:32:28.545Z,3.87
2018-07-15T12:34:57.135Z,4.03
2018-07-15T12:37:25.745Z,3.80
2018-07-15T12:39:54.314Z,4.10
2018-07-15T12:42:23.589Z,4.50
2018-07-15T12:44:52.169Z,3.97
2018-07-15T12:47:21.442Z,4.10
2018-07-15T12:49:49.723Z,4.43
2018-07-15T12:52:18.289Z,4.03
2018-07-15T12:54:46.873Z,4.40
2018-07-15T12:57:15.428Z,3.70
2018-07-15T12:59:44.044Z,4.60
2018-07-15T13:02:12.660Z,3.90
2018-07-15T13:04:41.247Z,4.47
2018-07-15T13:07:09.950Z,4.10
2018-07-15T13:09:39.132Z,4.10
2018-07-15T13:12:07.690Z,3.73
2018-07-15T13:14:36.352Z,4.00
2018-07-15T13:17:04.907Z,4.00
2018-07-15T13:19:33.512Z,4.07
2018-07-15T13:22:03.037Z,3.97
2018-07-15T13:24:33.001Z,3.70
2018-07-15T13:27:01.571Z,3.40
2018-07-15T13:29:30.151Z,4.03
2018-07-15T13:31:58.746Z,4.07
2018-07-15T13:34:27.337Z,3.90
2018-07-15T13:36:55.881Z,4.03
2018-07-15T13:39:24.465Z,4.17
2018-07-15T13:41:53.814Z,4.27
2018-07-15T13:44:22.379Z,4.13
2018-07-15T13:46:50.967Z,4.60
2018-07-15T13:49:20.002Z,4.17
2018-07-15T13:51:48.903Z,4.53
2018-07-15T13:54:18.093Z,3.90
2018-07-15T13:56:46.613Z,4.10
2018-07-15T13:59:14.846Z,4.07
2018-07-15T14:01:43.401Z,4.10
2018-07-15T14:04:11.984Z,3.97
2018-07-15T14:06:40.553Z,5.30
2018-07-15T14:09:09.148Z,5.60
2018-07-15T14:11:37.716Z,6.53
2018-07-15T14:14:06.985Z,5.77
2018-07-15T14:16:35.628Z,5.13
2018-07-15T14:19:04.185Z,6.03
2018-07-15T14:21:32.846Z,5.80
2018-07-15T14:24:01.392Z,5.57
2018-07-15T14:26:30.006Z,5.97
2018-07-15T14:28:59.437Z,5.50
2018-07-15T14:31:28.042Z,5.93
2018-07-15T14:33:56.584Z,6.07
2018-07-15T14:36:25.160Z,6.70
2018-07-15T14:38:53.709Z,7.37
2018-07-15T14:41:22.330Z,6.57
2018-07-15T14:43:51.018Z,8.00
2018-07-15T14:46:19.597Z,7.70
2018-07-15T14:48:48.164Z,8.27
2018-07-15T14:51:16.766Z,8.03
2018-07-15T14:53:45.327Z,7.60
2018-07-15T14:56:14.550Z,7.47
2018-07-15T14:58:43.112Z,6.63
2018-07-15T15:01:11.713Z,5.03
2018-07-15T15:03:41.101Z,5.30
2018-07-15T15:06:09.702Z,4.60
2018-07-15T15:08:38.880Z,4.07
2018-07-15T15:11:07.722Z,3.60
2018-07-15T15:13:36.626Z,3.87
2018-07-15T15:16:04.881Z,3.47
2018-07-15T15:18:33.485Z,3.43
2018-07-15T15:21:02.419Z,4.03
2018-07-15T15:23:31.107Z,3.47
2018-07-15T15:25:59.707Z,3.30
2018-07-15T15:28:28.270Z,3.40
2018-07-15T15:30:57.785Z,4.73
2018-07-15T15:33:26.385Z,10.00
2018-07-15T15:35:55.015Z,6.87
2018-07-15T15:38:23.589Z,4.20
2018-07-15T15:40:51.926Z,4.60
2018-07-15T15:43:20.510Z,3.23
2018-07-15T15:45:49.098Z,3.80
2018-07-15T15:48:17.677Z,3.10
2018-07-15T15:50:46.261Z,3.80
2018-07-15T15:53:14.840Z,4.30
2018-07-15T15:55:43.452Z,4.00
2018-07-15T15:58:12.055Z,4.10
2018-07-15T16:00:40.345Z,3.67
2018-07-15T16:03:08.573Z,3.80
2018-07-15T16:05:37.187Z,3.63
2018-07-15T16:08:06.946Z,4.03
2018-07-15T16:10:35.526Z,3.60
2018-07-15T16:13:04.101Z,4.67
2018-07-15T16:15:32.714Z,4.73
2018-07-15T16:18:01.295Z,4.00
2018-07-15T16:20:29.884Z,3.93
2018-07-15T16:22:58.566Z,3.87
2018-07-15T16:25:27.109Z,3.87
2018-07-15T16:27:55.333Z,5.07
2018-07-15T16:30:24.086Z,5.17
2018-07-15T16:32:52.842Z,4.23
2018-07-15T16:35:21.428Z,6.33
2018-07-15T16:37:50.658Z,5.30
2018-07-15T16:40:19.830Z,6.90
2018-07-15T16:42:48.402Z,5.97
2018-07-15T16:45:16.940Z,4.77
2018-07-15T16:47:46.016Z,4.70
2018-07-15T16:50:14.207Z,3.60
2018-07-15T16:52:42.789Z,4.40
2018-07-15T16:55:11.322Z,4.13
2018-07-15T16:57:39.921Z,4.43
2018-07-15T17:00:08.474Z,4.70
2018-07-15T17:02:37.075Z,3.73
2018-07-15T17:05:05.605Z,4.17
2018-07-15T17:07:34.183Z,3.10
2018-07-15T17:10:02.417Z,3.20
2018-07-15T17:12:31.646Z,4.13
2018-07-15T17:15:00.104Z,3.10
2018-07-15T17:17:28.662Z,3.50
2018-07-15T17:19:57.978Z,3.40
2018-07-15T17:22:26.573Z,3.63
2018-07-15T17:24:55.130Z,2.97
2018-07-15T17:27:23.713Z,3.10
2018-07-15T17:29:52.301Z,2.83
2018-07-15T17:32:20.882Z,1.63
2018-07-15T17:34:49.441Z,2.53
2018-07-15T17:37:18.380Z,2.80
2018-07-15T17:39:46.954Z,3.03
2018-07-15T17:42:15.521Z,2.60
2018-07-15T17:44:44.072Z,2.80
2018-07-15T17:47:12.330Z,2.80
2018-07-15T17:49:40.941Z,2.23
2018-07-15T17:52:09.484Z,2.80
2018-07-15T17:54:38.061Z,2.83
2018-07-15T17:57:06.630Z,2.67
2018-07-15T17:59:35.214Z,2.50
2018-07-15T18:02:03.817Z,2.87
2018-07-15T18:04:32.447Z,2.70
2018-07-15T18:07:01.037Z,2.63
2018-07-15T18:09:29.606Z,2.53
2018-07-15T18:11:57.828Z,2.27
2018-07-15T18:14:26.431Z,2.57
2018-07-15T18:16:55.045Z,2.47
2018-07-15T18:19:23.302Z,2.67
2018-07-15T18:21:52.749Z,2.80
2018-07-15T18:24:21.362Z,8.00
2018-07-15T18:26:50.611Z,3.07
2018-07-15T18:29:18.832Z,2.77
2018-07-15T18:31:47.369Z,2.97
2018-07-15T18:34:16.382Z,2.60
2018-07-15T18:36:45.234Z,3.17
2018-07-15T18:39:13.866Z,3.70
2018-07-15T18:41:42.966Z,3.00
2018-07-15T18:44:12.026Z,3.47
2018-07-15T18:46:40.558Z,3.37
2018-07-15T18:49:09.133Z,3.40
2018-07-15T18:51:38.446Z,3.17
2018-07-15T18:54:07.775Z,3.33
2018-07-15T18:56:36.325Z,3.10
2018-07-15T18:59:05.008Z,3.70
2018-07-15T19:01:33.598Z,3.70
2018-07-15T19:04:02.165Z,3.30
2018-07-15T19:06:30.712Z,2.70
2018-07-15T19:08:59.298Z,3.30
2018-07-15T19:11:28.424Z,3.40
2018-07-15T19:13:56.987Z,3.10
2018-07-15T19:16:25.540Z,2.90
2018-07-15T19:18:54.077Z,3.10
2018-07-15T19:21:22.637Z,3.70
2018-07-15T19:23:51.245Z,3.83
2018-07-15T19:26:19.830Z,3.07
2018-07-15T19:28:48.514Z,3.40
2018-07-15T19:31:17.368Z,3.40
2018-07-15T19:33:46.912Z,3.10
2018-07-15T19:36:16.156Z,3.40
2018-07-15T19:38:44.740Z,3.43
2018-07-15T19:41:13.999Z,3.47
2018-07-15T19:43:42.241Z,4.07
2018-07-15T19:46:10.980Z,4.20
2018-07-15T19:48:39.541Z,4.60
2018-07-15T19:51:08.086Z,4.30
2018-07-15T19:53:36.669Z,5.13
2018-07-15T19:56:05.862Z,4.57
2018-07-15T19:58:34.490Z,4.33
2018-07-15T20:01:02.770Z,5.33
2018-07-15T20:03:31.362Z,4.53
2018-07-15T20:06:00.054Z,9.10
2018-07-15T20:08:29.214Z,5.10
2018-07-15T20:10:57.865Z,4.80
2018-07-15T20:13:27.109Z,4.83
2018-07-15T20:15:55.698Z,4.20
2018-07-15T20:18:24.258Z,4.50
2018-07-15T20:20:52.901Z,4.83
2018-07-15T20:23:21.527Z,4.57
2018-07-15T20:25:50.426Z,4.40
2018-07-15T20:28:18.998Z,5.47
2018-07-15T20:30:47.693Z,5.00
2018-07-15T20:33:16.366Z,5.33
2018-07-15T20:35:45.117Z,4.80
2018-07-15T20:38:13.689Z,4.93
2018-07-15T20:40:41.898Z,4.83
2018-07-15T20:43:10.583Z,4.87
2018-07-15T20:45:39.746Z,4.73
2018-07-15T20:48:08.286Z,5.27
2018-07-15T20:50:36.860Z,5.10
2018-07-15T20:53:06.560Z,5.00
2018-07-15T20:55:35.136Z,5.10
2018-07-15T20:58:03.685Z,4.90
2018-07-15T21:00:31.898Z,4.67
2018-07-15T21:03:00.445Z,4.73
2018-07-15T21:05:28.969Z,4.53
2018-07-15T21:07:57.548Z,4.47
2018-07-15T21:10:26.762Z,4.83
2018-07-15T21:12:55.322Z,4.13
2018-07-15T21:15:23.932Z,4.00
2018-07-15T21:17:52.490Z,3.83
2018-07-15T21:20:21.089Z,4.00
2018-07-15T21:22:49.663Z,3.80
2018-07-15T21:25:18.247Z,4.03
2018-07-15T21:27:46.810Z,4.17
2018-07-15T21:30:15.075Z,3.97
2018-07-15T21:32:43.277Z,4.77
2018-07-15T21:35:11.862Z,4.47
2018-07-15T21:37:40.452Z,4.87
2018-07-15T21:40:09.117Z,4.10
2018-07-15T21:42:37.733Z,4.30
2018-07-15T21:45:06.465Z,4.23
2018-07-15T21:47:34.997Z,4.00
2018-07-15T21:50:03.691Z,4.47
2018-07-15T21:52:32.215Z,4.00
2018-07-15T21:55:00.761Z,4.00
2018-07-15T21:57:29.293Z,4.27
2018-07-15T21:59:57.873Z,4.20
2018-07-15T22:02:26.425Z,4.03
2018-07-15T22:04:57.470Z,4.50
2018-07-15T22:07:37.398Z,4.47
2018-07-15T22:11:10.477Z,4.60
2018-07-15T22:13:38.990Z,4.87
2018-07-15T22:16:07.564Z,3.70
2018-07-15T22:18:36.109Z,4.00
2018-07-15T22:21:04.349Z,4.37
2018-07-15T22:23:32.968Z,4.40
2018-07-15T22:26:01.189Z,4.40
2018-07-15T22:28:29.726Z,4.23
2018-07-15T22:30:58.303Z,4.23
2018-07-15T22:33:26.862Z,4.70
2018-07-15T22:35:55.441Z,4.57
2018-07-15T22:38:23.974Z,5.13
2018-07-15T22:40:52.184Z,4.77
2018-07-15T22:43:21.805Z,4.57
2018-07-15T22:45:50.905Z,4.77
2018-07-15T22:48:19.458Z,5.30
2018-07-15T22:50:48.552Z,4.70
2018-07-15T22:53:18.035Z,5.10
2018-07-15T22:55:46.212Z,4.90
2018-07-15T22:58:14.423Z,4.60
2018-07-15T23:00:43.048Z,5.33
2018-07-15T23:03:11.597Z,5.43
2018-07-15T23:05:55.523Z,5.10
2018-07-15T23:08:25.061Z,4.73
2018-07-15T23:10:53.753Z,4.80
2018-07-15T23:13:22.370Z,5.30
2018-07-15T23:15:51.411Z,4.93
2018-07-15T23:18:20.222Z,5.50
2018-07-15T23:20:49.521Z,5.13
2018-07-15T23:23:18.321Z,5.43
2018-07-15T23:25:46.927Z,5.23
2018-07-15T23:28:17.025Z,5.17
2018-07-15T23:30:45.959Z,5.37
2018-07-15T23:33:14.318Z,5.47
2018-07-15T23:35:42.865Z,5.50
2018-07-15T23:38:11.438Z,5.67
2018-07-15T23:40:39.980Z,5.60
2018-07-15T23:43:08.245Z,6.23
2018-07-15T23:45:37.209Z,6.00
2018-07-15T23:48:06.042Z,5.27
2018-07-15T23:50:34.273Z,5.83
2018-07-15T23:53:02.839Z,5.87
2018-07-15T23:55:32.115Z,5.53
2018-07-15T23:58:01.207Z,6.80
